Weather at Kijabe Airport

Public forecast

Using degrees Celsius for public forecast. Weather courtesy of forecast.io.

Closest aviation weather report (METAR) to Kijabe Airport

Closest report is Nairobi Wilson Airport, 25.7 nm (47.5 km) SSE.

2023/04/02 08:00 (retrieved 60 minutes ago)

HKNW 020800Z 00000KT 9999 BKN025 23/14 Q1024

Closest aviation forecast (TAF) to Kijabe Airport

Closest forecast is Nairobi Wilson Airport, 25.7 nm (47.5 km) SSE.

2023/04/02 06:12 (retrieved 3 hours ago)

TAF HKNW 020500Z 0206/0306 08015KT 9999 FEW025CB BKN026 BECMG 0222/0224 01005KT FEW008 BKN015